Forside
METAR-TAF:

METAR-TAF

Lufthavne :

Khartoum, Sudan

Breddekreds: 15-36N, længdekreds: 032-33E, højde: 382 m

Aktuelle vejr

Denne rapport blev lavet for 38 minutter siden, kl. 17:30 UTC
Vind 10 kt fra syd
Temperatur 35°C
Fugtighed 34%
Tryk 1009 hPa
Sigt 10 km eller mere
ingen skyer under 1500m og ingen cumulonimbus

METAR: HSSS 141730Z 19010KT CAVOK 35/17 Q1009 NOSIG

Tid: 21:08 (18:08 UTC)

Vejrudsigter

Denne rapport blev lavet for 1 time og 8 minutter siden, kl. 17:00 UTC
Foreløbig gælder fra 14 på 18 UTC til 15 på 24 UTC
Vind 8 kt fra sydvest med vindstød på up til 18 kt
Sigt 10 km eller mere
Spredte skyer i en højde af 14000 ft
Midlertidig
fra 14 på 22 UTC til 15 på 03 UTC
Sigt: 6000 m
Brudte skyer i en højde af 14000 ft
regnbyger

TAF: HSSS 141700Z 1418/1524 22008G18KT 9999 SCT140 TEMPO 1422/1503 6000 SHRA BKN140

Vejrobservationer og prognoser fra mere end 4000 lufthavne (METAR og TAF).

De gule og røde prikker repræsenterer de meteorologiske stationer.

Flyt musen over at se navnet på stationen.

Så klik over at se vejr observationer og prognoser.

At skifte det kort: Klik på de grønne knapper med et sort kors for at zoome ind; på den grønne knap med en bindestreg for at zoome ud; eller på de grønne pile for tilstødende kort.


METAR-TAF: